»·PEaware :: N799DS KOXR-KSBA

N799DS :: KOXR-KSBA

FLIGHT INFORMATION

Flight Status: Arrived
Operator: Privately registered:
United States
More flights under this callsign
Pilot: Wolfgang B. (15069)
Aircraft: CESSNA 172 SKYHAWK
(C172)
More flights by this aircraft type
Origin: KOXR Oxnard
United States
Destination: KSBA Santa Barbara Mun
United States
More flights between these airports :: More routes between these airports
Route: KWANG
File this flight plan on PilotEdge
Remarks:
Altitude:
(Current/Filed)
4,000ft
Speed:
(Current/Filed)
120kts
Departed: 21-Oct-20 02:15 PM
Arrived: 21-Oct-20 02:46 PM
Distance/Time
Traveled:
34nm/0:31
Distance/Time
To Go:
Arrived

Flight Plot

Page will automatically refresh every two minutes.


Map Options




Map Legend


Flown Route
Filed Route
Departure Airport
Arrival Airport
Navaid (VOR, NDB)
Fix

Horizontal Profiles

Position Reports

Time Latitude Longitude Heading Altitude Ground
Speed
21-Oct-20 14:06 34.198766 -119.198327 86 43ft 0kts
21-Oct-20 14:07 34.198766 -119.198327 86 43ft 0kts
21-Oct-20 14:08 34.198766 -119.198327 86 43ft 0kts
21-Oct-20 14:09 34.198766 -119.198327 86 43ft 0kts
21-Oct-20 14:10 34.198766 -119.198327 86 43ft 0kts
21-Oct-20 14:10 34.198766 -119.198327 86 43ft 0kts
21-Oct-20 14:12 34.198887 -119.198134 15 43ft 7kts
21-Oct-20 14:12 34.199947 -119.197571 2 43ft 0kts
21-Oct-20 14:14 34.200701 -119.197670 308 43ft 11kts
21-Oct-20 14:14 34.201247 -119.212758 266 435ft 68kts
21-Oct-20 14:15 34.200624 -119.237059 267 1331ft 66kts
21-Oct-20 14:16 34.199943 -119.260525 267 2119ft 67kts
21-Oct-20 14:17 34.199086 -119.285444 271 2898ft 68kts
21-Oct-20 14:18 34.208761 -119.307726 296 3620ft 70kts
21-Oct-20 14:19 34.219951 -119.330943 298 4026ft 100kts
21-Oct-20 14:20 34.236613 -119.364943 298 4018ft 115kts
21-Oct-20 14:21 34.254038 -119.400726 298 4017ft 117kts
21-Oct-20 14:22 34.271499 -119.436652 298 4018ft 117kts
21-Oct-20 14:23 34.289034 -119.472771 298 4019ft 118kts
21-Oct-20 14:24 34.307090 -119.510059 296 4020ft 119kts
21-Oct-20 14:25 34.311860 -119.553031 272 4022ft 118kts
21-Oct-20 14:26 34.314232 -119.597040 272 4023ft 118kts
21-Oct-20 14:27 34.316681 -119.641215 272 4016ft 119kts
21-Oct-20 14:28 34.319192 -119.685969 271 4016ft 120kts
21-Oct-20 14:29 34.321731 -119.730949 271 4017ft 120kts
21-Oct-20 14:30 34.324273 -119.776026 272 4018ft 121kts
21-Oct-20 14:31 34.326829 -119.821321 272 4018ft 121kts
21-Oct-20 14:32 34.329322 -119.865501 272 4018ft 121kts
21-Oct-20 14:33 34.331784 -119.909034 272 4018ft 121kts
21-Oct-20 14:34 34.334196 -119.951566 272 4018ft 121kts
21-Oct-20 14:35 34.336573 -119.993352 272 4018ft 121kts
21-Oct-20 14:36 34.340216 -120.033776 300 4009ft 123kts
21-Oct-20 14:37 34.372433 -120.048652 342 4012ft 126kts
21-Oct-20 14:38 34.405511 -120.048840 48 3695ft 120kts
21-Oct-20 14:39 34.425074 -120.016534 84 2912ft 94kts
21-Oct-20 14:40 34.424816 -119.985984 91 2239ft 95kts
21-Oct-20 14:41 34.425465 -119.950144 90 1610ft 108kts
21-Oct-20 14:42 34.426278 -119.912555 90 987ft 103kts
21-Oct-20 14:43 34.427008 -119.876881 90 406ft 91kts
21-Oct-20 14:44 34.427520 -119.852863 91 32ft 58kts
21-Oct-20 14:45 34.428612 -119.845202 59 14ft 0kts
21-Oct-20 14:46 34.431461 -119.837233 67 14ft 32kts
21-Oct-20 14:47 34.432350 -119.835847 250 14ft 0kts
21-Oct-20 14:48 34.432351 -119.835847 250 14ft 0kts
21-Oct-20 14:49 34.432351 -119.835846 250 14ft 0kts
21-Oct-20 14:50 34.432351 -119.835846 250 14ft 0kts
21-Oct-20 14:51 34.432351 -119.835846 250 14ft 0kts
21-Oct-20 14:52 34.432351 -119.835846 250 14ft 0kts
21-Oct-20 14:53 34.432351 -119.835846 250 14ft 0kts
21-Oct-20 14:54 34.432351 -119.835846 250 14ft 0kts
21-Oct-20 14:55 34.432351 -119.835846 250 14ft 0kts
21-Oct-20 14:56 34.432351 -119.835846 250 14ft 0kts
21-Oct-20 14:57 34.432351 -119.835846 250 14ft 0kts
21-Oct-20 14:58 34.432351 -119.835846 250 14ft 0kts
21-Oct-20 14:59 34.432351 -119.835846 250 14ft 0kts

Navigation Log

Ident Type
Flight plan parsing failed, navigation log unavailable